Time;durP1;ratioP1;P1;durP2;ratioP2;P2;SDS_P1;SDS_P2;PMS_P1;PMS_P2;Temp;Humidity;BMP_temperature;BMP_pressure;BME280_temperature;BME280_humidity;BME280_pressure;Samples;Min_cycle;Max_cycle;Signal;HPM_P1;HPM_P2
2022/03/16 00:01:30;;;;;;;53.15;24.02;;;;;;;6.57;58.36;101082.47;5094615;28;20040;-75
2022/03/16 00:03:55;;;;;;;39.17;19.23;;;;;;;6.60;58.48;101064.69;5093391;28;20031;-76
2022/03/16 00:06:20;;;;;;;67.28;31.05;;;;;;;6.56;58.96;101081.63;5095269;28;20071;-76
2022/03/16 00:08:46;;;;;;;62.78;27.25;;;;;;;6.59;58.40;101063.00;5093242;28;20076;-76
2022/03/16 00:11:13;;;;;;;59.10;29.05;;;;;;;6.59;57.87;101062.16;5092082;28;20087;-75
2022/03/16 00:13:38;;;;;;;69.63;37.83;;;;;;;6.72;58.71;101070.91;5094723;28;20040;-75
2022/03/16 00:16:04;;;;;;;49.05;25.10;;;;;;;6.78;57.77;101067.00;5093167;28;20081;-76
2022/03/16 00:18:29;;;;;;;55.22;21.83;;;;;;;6.62;57.63;101049.63;5094095;28;20046;-76
2022/03/16 00:20:55;;;;;;;79.30;28.40;;;;;;;6.80;58.43;101050.16;5092874;28;20034;-76
2022/03/16 00:23:21;;;;;;;50.30;22.95;;;;;;;6.66;58.17;101045.84;5095628;28;20027;-75
2022/03/16 00:25:46;;;;;;;45.75;22.00;;;;;;;6.56;58.86;101050.06;5092819;28;20065;-75
2022/03/16 00:28:12;;;;;;;57.78;26.90;;;;;;;6.35;59.22;101020.78;5094049;28;20356;-76
2022/03/16 00:30:38;;;;;;;46.88;24.17;;;;;;;6.34;59.80;101026.16;5093920;28;20044;-76
2022/03/16 00:33:03;;;;;;;43.42;20.98;;;;;;;6.70;58.65;101039.41;5094000;28;20055;-76
2022/03/16 00:35:29;;;;;;;61.17;25.10;;;;;;;6.51;59.51;101038.16;5093778;28;20104;-76
2022/03/16 00:37:54;;;;;;;69.40;26.05;;;;;;;6.39;59.74;101031.94;5093822;28;20039;-76
2022/03/16 00:40:20;;;;;;;52.78;25.45;;;;;;;6.32;59.26;101034.13;5093504;28;20066;-76
2022/03/16 00:42:45;;;;;;;56.63;25.17;;;;;;;6.21;60.65;101038.41;5095458;28;20325;-76
2022/03/16 00:45:11;;;;;;;69.35;26.02;;;;;;;6.22;60.63;101032.19;5098297;28;20091;-76
2022/03/16 00:47:36;;;;;;;61.63;25.77;;;;;;;6.21;60.26;101023.47;5096832;28;20067;-75
2022/03/16 00:50:02;;;;;;;89.07;34.10;;;;;;;6.33;59.85;101025.31;5098061;28;20063;-76
2022/03/16 00:52:27;;;;;;;102.70;39.63;;;;;;;6.33;60.17;101042.88;5097027;28;20036;-76
2022/03/16 00:54:53;;;;;;;65.93;27.95;;;;;;;6.21;60.37;101041.88;5097432;28;20032;-76
2022/03/16 00:57:18;;;;;;;49.22;22.25;;;;;;;6.23;60.05;101031.25;5096899;28;20264;-76
2022/03/16 00:59:43;;;;;;;38.00;18.45;;;;;;;6.03;60.25;101027.31;5096959;28;20042;-76
2022/03/16 01:02:09;;;;;;;37.33;16.60;;;;;;;6.05;60.45;101036.78;5096878;28;20059;-75
2022/03/16 01:04:34;;;;;;;32.33;15.38;;;;;;;6.03;60.51;101025.53;5097030;28;20082;-76
2022/03/16 01:07:00;;;;;;;29.02;15.32;;;;;;;6.23;59.87;101034.72;5097599;28;20039;-76
2022/03/16 01:09:25;;;;;;;28.20;14.88;;;;;;;5.85;61.69;101031.13;5098086;28;20040;-75
2022/03/16 01:11:51;;;;;;;31.65;16.48;;;;;;;5.66;61.99;100995.53;5097997;28;20343;-76
2022/03/16 01:14:17;;;;;;;26.27;14.35;;;;;;;5.78;62.02;101026.28;5094728;28;20314;-75
2022/03/16 01:16:43;;;;;;;31.73;14.90;;;;;;;5.93;61.62;101031.50;5098395;28;20384;-75
2022/03/16 01:19:09;;;;;;;29.92;14.85;;;;;;;5.91;61.56;101007.94;5096289;28;20036;-76
2022/03/16 01:21:35;;;;;;;27.55;13.60;;;;;;;5.73;62.36;101006.50;5098114;28;20100;-76
2022/03/16 01:24:00;;;;;;;31.13;15.88;;;;;;;5.91;62.39;101007.09;5095619;28;20116;-76
2022/03/16 01:26:26;;;;;;;36.65;16.40;;;;;;;5.70;62.73;100985.69;5096750;28;20047;-75
2022/03/16 01:28:51;;;;;;;31.50;14.40;;;;;;;5.91;62.29;100993.97;5096216;28;20036;-75
2022/03/16 01:31:21;;;;;;;37.35;16.85;;;;;;;6.21;61.00;100986.66;5096497;28;20042;-76
2022/03/16 01:33:46;;;;;;;35.22;16.02;;;;;;;6.02;61.80;100970.44;5099217;28;20036;-75
2022/03/16 01:36:12;;;;;;;37.42;17.17;;;;;;;5.90;62.50;100952.84;5097233;28;20398;-75
2022/03/16 01:38:38;;;;;;;30.70;16.52;;;;;;;5.96;61.98;100966.41;5096616;28;20105;-75
2022/03/16 01:41:03;;;;;;;39.55;16.50;;;;;;;6.01;61.83;100969.59;5096090;28;20249;-75
2022/03/16 01:43:29;;;;;;;34.20;15.13;;;;;;;5.98;62.78;100984.72;5095691;28;20040;-76
2022/03/16 01:45:54;;;;;;;28.58;14.10;;;;;;;5.97;62.49;100962.84;5097942;28;20031;-76
2022/03/16 01:48:20;;;;;;;29.75;14.65;;;;;;;6.06;61.99;100948.25;5095516;28;20226;-76
2022/03/16 01:50:47;;;;;;;26.50;14.18;;;;;;;6.26;61.32;100958.28;5096962;28;20038;-76
2022/03/16 01:53:13;;;;;;;28.17;13.35;;;;;;;6.29;61.79;100947.53;5094999;28;20086;-75
2022/03/16 01:55:40;;;;;;;28.77;13.88;;;;;;;6.35;61.23;100920.81;5094142;28;20070;-75
2022/03/16 01:58:05;;;;;;;32.97;13.82;;;;;;;6.53;61.17;100931.84;5096432;28;20048;-76
2022/03/16 02:00:31;;;;;;;27.33;14.40;;;;;;;6.56;60.82;100926.38;5097522;28;20337;-75
2022/03/16 02:02:57;;;;;;;27.50;13.95;;;;;;;6.39;61.10;100930.19;5095913;28;20040;-76
2022/03/16 02:05:23;;;;;;;39.15;15.20;;;;;;;6.42;60.94;100902.81;5096075;28;20082;-76
2022/03/16 02:07:50;;;;;;;38.20;16.08;;;;;;;6.53;60.50;100921.31;5097347;28;20298;-75
2022/03/16 02:10:17;;;;;;;30.73;14.45;;;;;;;6.30;60.95;100916.81;5094585;28;20253;-75
2022/03/16 02:12:51;;;;;;;30.92;14.57;;;;;;;6.37;60.98;100918.06;5094442;28;20020;-75
2022/03/16 02:15:17;;;;;;;29.60;14.88;;;;;;;6.20;60.71;100892.91;5095550;28;20048;-76
2022/03/16 02:17:43;;;;;;;26.88;14.30;;;;;;;6.23;60.90;100902.38;5096186;28;20042;-75
2022/03/16 02:20:10;;;;;;;28.58;15.32;;;;;;;6.17;60.20;100864.19;5094457;28;20029;-75
2022/03/16 02:22:42;;;;;;;34.17;16.45;;;;;;;6.31;60.70;100910.63;5095404;28;20035;-75
2022/03/16 02:25:08;;;;;;;35.38;16.88;;;;;;;6.25;60.87;100916.31;5080422;28;20040;-76
2022/03/16 02:27:34;;;;;;;34.22;17.40;;;;;;;6.19;60.69;100896.50;5094687;28;20322;-76
2022/03/16 02:29:59;;;;;;;33.25;16.52;;;;;;;6.31;61.01;100927.25;5096394;28;20120;-75
2022/03/16 02:32:24;;;;;;;35.60;16.00;;;;;;;6.32;60.60;100923.66;5094800;28;20103;-76
2022/03/16 02:34:50;;;;;;;33.47;15.98;;;;;;;6.25;60.70;100897.88;5097092;28;20055;-75
2022/03/16 02:37:15;;;;;;;32.38;15.32;;;;;;;6.33;60.71;100906.94;5094578;28;20027;-75
2022/03/16 02:39:41;;;;;;;32.05;17.27;;;;;;;6.25;60.57;100895.25;5096181;28;20028;-75
2022/03/16 02:42:07;;;;;;;31.45;14.10;;;;;;;6.22;61.50;100903.31;5094218;28;20407;-75
2022/03/16 02:44:32;;;;;;;32.50;14.45;;;;;;;6.21;61.25;100917.44;5096309;28;20050;-76
2022/03/16 02:46:57;;;;;;;28.98;14.38;;;;;;;6.19;60.51;100872.81;5110712;28;20067;-76
2022/03/16 02:49:23;;;;;;;29.90;16.10;;;;;;;6.21;61.09;100883.22;5095015;28;20099;-75
2022/03/16 02:51:48;;;;;;;37.28;16.77;;;;;;;6.33;60.85;100890.31;5094558;28;20256;-75
2022/03/16 02:54:14;;;;;;;29.27;15.10;;;;;;;6.15;61.29;100892.38;5095379;28;20043;-75
2022/03/16 02:56:39;;;;;;;38.83;16.70;;;;;;;6.18;60.58;100876.41;5095121;28;20330;-76
2022/03/16 02:59:05;;;;;;;30.92;15.63;;;;;;;6.21;61.34;100891.97;5094581;28;20031;-75
2022/03/16 03:01:30;;;;;;;35.70;14.00;;;;;;;6.02;61.45;100899.44;5095294;28;20040;-75
2022/03/16 03:03:56;;;;;;;29.75;14.77;;;;;;;6.00;62.38;100899.53;5093798;28;20032;-76
2022/03/16 03:06:21;;;;;;;29.08;15.07;;;;;;;5.97;62.19;100888.41;5096244;28;20302;-76
2022/03/16 03:08:48;;;;;;;29.02;14.68;;;;;;;5.91;62.82;100894.06;5093597;28;20376;-75
2022/03/16 03:11:14;;;;;;;35.17;15.43;;;;;;;5.82;62.89;100895.50;5095210;28;20032;-75
2022/03/16 03:13:39;;;;;;;27.02;14.32;;;;;;;5.72;63.10;100889.19;5093725;28;21563;-76
2022/03/16 03:16:05;;;;;;;29.42;14.13;;;;;;;5.78;62.96;100894.03;5095406;28;20051;-75
2022/03/16 03:18:30;;;;;;;29.20;14.57;;;;;;;5.74;63.06;100898.66;5094308;28;20036;-75
2022/03/16 03:20:56;;;;;;;28.92;15.05;;;;;;;5.19;64.38;100880.41;5094072;28;20046;-76
2022/03/16 03:23:21;;;;;;;29.52;14.52;;;;;;;5.62;64.01;100896.00;5110631;28;20243;-75
2022/03/16 03:25:46;;;;;;;27.08;14.20;;;;;;;5.59;63.39;100897.03;5094573;28;20025;-75
2022/03/16 03:28:12;;;;;;;29.35;13.38;;;;;;;5.50;62.94;100874.00;5094152;28;20040;-76
2022/03/16 03:30:37;;;;;;;29.63;13.68;;;;;;;5.26;64.36;100888.75;5093959;28;20036;-76
2022/03/16 03:33:03;;;;;;;27.02;13.30;;;;;;;4.98;65.69;100885.28;5093839;28;20040;-76
2022/03/16 03:35:28;;;;;;;28.85;13.85;;;;;;;5.18;65.96;100878.72;5093683;28;20035;-75
2022/03/16 03:37:54;;;;;;;24.73;12.57;;;;;;;5.42;63.92;100865.81;5093030;28;20016;-75
2022/03/16 03:40:20;;;;;;;26.58;14.27;;;;;;;5.18;65.19;100872.63;5095050;28;20016;-76
2022/03/16 03:42:45;;;;;;;38.50;15.73;;;;;;;5.06;66.60;100862.00;5093174;28;20020;-76
2022/03/16 03:45:11;;;;;;;32.08;15.40;;;;;;;5.11;65.52;100843.31;5095933;28;20031;-76
2022/03/16 03:47:36;;;;;;;34.28;14.90;;;;;;;5.16;66.48;100858.75;5093539;28;20051;-75
2022/03/16 03:50:02;;;;;;;36.88;15.50;;;;;;;5.30;65.93;100849.06;5093628;28;20031;-76
2022/03/16 03:52:28;;;;;;;28.33;14.10;;;;;;;5.41;64.84;100829.97;5093921;28;20024;-76
2022/03/16 03:54:53;;;;;;;32.95;16.00;;;;;;;5.24;65.72;100848.63;5094814;28;20050;-76
2022/03/16 03:57:19;;;;;;;29.10;14.70;;;;;;;5.19;65.91;100848.06;5093917;28;20211;-75
2022/03/16 03:59:44;;;;;;;30.08;14.32;;;;;;;4.97;66.66;100846.84;5093288;28;20027;-75
2022/03/16 04:02:10;;;;;;;35.85;15.38;;;;;;;4.90;67.53;100849.97;5094597;28;20048;-75
2022/03/16 04:04:35;;;;;;;82.30;22.38;;;;;;;5.03;66.77;100832.47;5094239;28;20028;-76
2022/03/16 04:07:00;;;;;;;32.47;14.88;;;;;;;5.40;65.39;100854.56;5093675;28;20024;-75
2022/03/16 04:09:26;;;;;;;24.85;13.98;;;;;;;4.99;66.32;100821.34;5092632;28;20042;-75
2022/03/16 04:11:51;;;;;;;31.42;15.70;;;;;;;5.21;65.96;100833.09;5094016;28;20024;-75
2022/03/16 04:14:17;;;;;;;29.23;15.63;;;;;;;5.05;66.26;100831.44;5093087;28;20529;-76
2022/03/16 04:16:43;;;;;;;31.50;15.07;;;;;;;4.96;66.99;100836.44;5092693;28;20080;-75
2022/03/16 04:19:08;;;;;;;29.95;14.80;;;;;;;4.71;67.42;100824.06;5093157;28;20059;-75
2022/03/16 04:21:34;;;;;;;30.83;15.18;;;;;;;4.69;68.01;100852.19;5094222;28;20099;-75
2022/03/16 04:24:00;;;;;;;28.80;15.10;;;;;;;4.53;68.29;100826.06;5093927;28;20218;-75
2022/03/16 04:26:25;;;;;;;34.83;15.32;;;;;;;4.62;69.30;100843.00;5093782;28;20028;-75
2022/03/16 04:28:51;;;;;;;31.42;15.68;;;;;;;4.68;69.06;100847.88;5093038;28;20028;-75
2022/03/16 04:31:16;;;;;;;31.27;16.30;;;;;;;4.79;68.23;100848.03;5092841;28;20110;-75
2022/03/16 04:33:42;;;;;;;37.05;17.63;;;;;;;4.80;68.07;100845.31;5094049;28;20328;-75
2022/03/16 04:36:07;;;;;;;37.08;18.67;;;;;;;4.88;68.08;100843.97;5092384;28;20036;-75
2022/03/16 04:38:33;;;;;;;38.47;19.27;;;;;;;4.93;67.70;100840.09;5094669;28;20032;-75
2022/03/16 04:41:01;;;;;;;43.08;18.70;;;;;;;4.95;67.42;100842.63;5092667;28;20093;-76
2022/03/16 04:43:26;;;;;;;38.03;18.92;;;;;;;5.18;66.90;100843.75;5092208;28;20032;-75
2022/03/16 04:45:51;;;;;;;34.85;18.10;;;;;;;5.01;67.12;100836.97;5093853;28;20119;-75
2022/03/16 04:48:17;;;;;;;37.20;17.42;;;;;;;5.08;67.06;100844.34;5092293;28;20311;-75
2022/03/16 04:50:42;;;;;;;36.13;18.88;;;;;;;5.35;65.71;100836.47;5094237;28;20396;-75
2022/03/16 04:53:08;;;;;;;46.03;21.35;;;;;;;5.14;65.81;100845.75;5093014;28;20239;-75
2022/03/16 04:55:37;;;;;;;42.53;20.73;;;;;;;4.95;67.03;100821.63;5094190;28;20390;-75
2022/03/16 04:58:07;;;;;;;44.63;20.65;;;;;;;5.20;66.10;100827.00;5093454;28;21120;-75
2022/03/16 05:00:34;;;;;;;47.00;20.48;;;;;;;5.25;65.40;100822.28;5092476;28;20043;-75
2022/03/16 05:02:59;;;;;;;49.25;21.90;;;;;;;5.22;65.66;100824.25;5093724;28;20036;-75
2022/03/16 05:05:25;;;;;;;43.47;21.10;;;;;;;5.26;65.70;100821.31;5092314;28;20322;-75
2022/03/16 05:07:50;;;;;;;34.88;18.00;;;;;;;5.20;65.90;100815.63;5093646;28;20094;-76
2022/03/16 05:10:16;;;;;;;34.70;18.15;;;;;;;5.17;66.50;100808.78;5092168;28;20218;-75
2022/03/16 05:12:43;;;;;;;43.13;20.35;;;;;;;5.27;65.98;100812.50;5094315;28;20035;-75
2022/03/16 05:15:13;;;;;;;37.78;19.13;;;;;;;5.23;65.83;100807.56;5093273;28;20195;-75
2022/03/16 05:17:38;;;;;;;47.80;23.00;;;;;;;5.44;65.09;100819.25;5094054;28;20144;-76
2022/03/16 05:20:05;;;;;;;73.82;30.08;;;;;;;5.48;65.37;100815.47;5092602;28;20233;-75
2022/03/16 05:22:31;;;;;;;67.68;29.27;;;;;;;5.57;65.35;100820.13;5094264;28;20020;-75
2022/03/16 05:24:56;;;;;;;137.48;51.90;;;;;;;5.74;65.03;100813.72;5091731;28;20043;-75
2022/03/16 05:27:22;;;;;;;79.93;29.48;;;;;;;5.61;65.56;100821.59;5093084;28;20341;-76
2022/03/16 05:29:48;;;;;;;58.40;24.02;;;;;;;5.56;65.37;100826.31;5093383;28;20066;-76
2022/03/16 05:32:14;;;;;;;68.30;24.85;;;;;;;5.47;65.13;100805.91;5097602;28;20035;-75
2022/03/16 05:34:40;;;;;;;64.57;24.23;;;;;;;5.69;64.84;100808.75;5095804;28;20341;-75
2022/03/16 05:37:05;;;;;;;51.55;22.98;;;;;;;5.89;64.33;100819.69;5096840;28;20061;-75
2022/03/16 05:39:31;;;;;;;54.95;22.27;;;;;;;5.73;64.28;100786.59;5096684;28;20281;-76
2022/03/16 05:41:56;;;;;;;58.65;24.98;;;;;;;5.59;65.07;100789.31;5096382;28;20027;-75
2022/03/16 05:44:22;;;;;;;61.47;25.63;;;;;;;5.43;66.41;100771.13;5096645;28;20021;-76
2022/03/16 05:46:47;;;;;;;46.55;21.38;;;;;;;5.36;66.99;100793.50;5096243;28;20020;-75
2022/03/16 05:49:13;;;;;;;45.53;21.65;;;;;;;4.96;68.25;100747.19;5095533;28;20024;-75
2022/03/16 05:51:38;;;;;;;51.47;22.00;;;;;;;5.13;69.26;100779.25;5096184;28;20032;-76
2022/03/16 05:54:04;;;;;;;47.10;21.40;;;;;;;5.25;67.91;100776.78;5097113;28;20059;-76
2022/03/16 05:56:31;;;;;;;43.30;19.60;;;;;;;5.31;68.01;100781.63;5096006;28;20051;-75
2022/03/16 05:58:57;;;;;;;40.60;19.50;;;;;;;4.89;69.15;100780.03;5097597;28;20040;-75
2022/03/16 06:01:22;;;;;;;44.20;19.30;;;;;;;4.73;70.72;100782.81;5094706;28;20048;-75
2022/03/16 06:03:48;;;;;;;40.75;20.95;;;;;;;4.53;71.75;100754.41;5097747;28;20024;-75
2022/03/16 06:06:15;;;;;;;37.87;18.97;;;;;;;4.61;71.30;100765.25;5095545;28;20118;-75
2022/03/16 06:08:41;;;;;;;115.05;46.65;;;;;;;4.57;70.63;100785.59;5096335;28;20697;-75
2022/03/16 06:11:06;;;;;;;61.80;29.10;;;;;;;4.60;70.67;100779.31;5095964;28;20257;-75
2022/03/16 06:13:32;;;;;;;46.87;22.80;;;;;;;4.58;71.36;100789.06;5096399;28;20035;-75
2022/03/16 06:15:57;;;;;;;45.65;23.38;;;;;;;4.46;72.19;100798.56;5097230;28;20095;-75
2022/03/16 06:18:22;;;;;;;43.90;20.80;;;;;;;4.20;74.09;100797.56;5095854;28;20087;-77
2022/03/16 06:20:48;;;;;;;44.00;19.57;;;;;;;3.92;76.22;100793.16;5095188;28;20108;-78
2022/03/16 06:23:13;;;;;;;40.83;19.43;;;;;;;3.70;77.95;100805.88;5095226;28;20270;-77
2022/03/16 06:25:39;;;;;;;51.83;21.27;;;;;;;3.66;79.19;100786.88;5096097;28;20093;-77
2022/03/16 06:28:04;;;;;;;39.03;20.20;;;;;;;3.87;78.89;100784.75;5094550;28;20348;-76
2022/03/16 06:30:30;;;;;;;43.70;20.90;;;;;;;3.97;78.59;100774.53;5095930;28;20051;-75
2022/03/16 06:32:55;;;;;;;55.63;23.90;;;;;;;3.82;78.62;100764.06;5094548;28;20026;-76
2022/03/16 06:35:21;;;;;;;49.63;25.57;;;;;;;3.40;79.32;100724.78;5096407;28;20031;-78
2022/03/16 06:37:46;;;;;;;57.30;27.93;;;;;;;3.75;79.59;100773.25;5094054;28;20115;-77
2022/03/16 06:40:14;;;;;;;53.83;26.87;;;;;;;3.77;77.96;100762.66;5096592;28;20028;-77
2022/03/16 06:42:57;;;;;;;54.17;27.03;;;;;;;3.75;79.08;100769.78;5094933;28;20044;-76
2022/03/16 06:45:24;;;;;;;53.27;26.53;;;;;;;3.81;78.02;100772.03;5095320;28;20536;-75
2022/03/16 06:47:50;;;;;;;49.73;25.40;;;;;;;3.87;77.65;100766.41;5095496;28;20090;-75
2022/03/16 06:50:16;;;;;;;48.67;25.53;;;;;;;4.07;76.88;100770.41;5095245;28;20357;-75
2022/03/16 06:52:42;;;;;;;58.90;25.73;;;;;;;4.25;75.95;100763.19;5094454;28;20247;-75
2022/03/16 06:55:08;;;;;;;51.13;26.03;;;;;;;4.45;75.44;100763.63;5096093;28;20032;-76
2022/03/16 06:57:34;;;;;;;53.30;25.00;;;;;;;4.42;74.17;100742.00;5093747;28;20092;-75
2022/03/16 07:00:00;;;;;;;54.63;26.60;;;;;;;4.37;74.64;100758.03;5096084;28;20036;-76
2022/03/16 07:02:25;;;;;;;56.97;26.43;;;;;;;4.16;75.52;100743.63;5094104;28;20063;-75
2022/03/16 07:04:50;;;;;;;54.63;25.77;;;;;;;4.32;74.45;100762.72;5095875;28;20035;-75
2022/03/16 07:07:16;;;;;;;55.70;27.43;;;;;;;4.24;75.22;100756.28;5094264;28;20093;-75
2022/03/16 07:09:41;;;;;;;59.10;26.90;;;;;;;4.54;74.90;100762.19;5093069;28;20035;-75
2022/03/16 07:12:07;;;;;;;50.95;25.77;;;;;;;4.77;73.77;100753.66;5094724;28;20032;-75
2022/03/16 07:14:33;;;;;;;57.30;26.20;;;;;;;4.96;73.07;100765.56;5095013;28;20069;-75
2022/03/16 07:16:59;;;;;;;59.83;27.38;;;;;;;5.28;70.23;100771.34;5095081;28;20040;-76
2022/03/16 07:19:25;;;;;;;52.17;26.20;;;;;;;5.26;69.00;100742.56;5094172;28;20358;-75
2022/03/16 07:21:50;;;;;;;56.37;27.20;;;;;;;5.25;69.39;100751.38;5095881;28;20035;-76
2022/03/16 07:24:16;;;;;;;58.50;29.73;;;;;;;5.18;70.73;100750.06;5093764;28;20036;-75
2022/03/16 07:26:42;;;;;;;62.97;30.92;;;;;;;5.14;71.23;100754.69;5095787;28;20044;-75
2022/03/16 07:29:08;;;;;;;76.93;32.97;;;;;;;4.92;72.42;100748.34;5093490;28;20046;-75
2022/03/16 07:31:33;;;;;;;66.33;31.80;;;;;;;4.90;73.42;100750.22;5095641;28;20059;-75
2022/03/16 07:33:59;;;;;;;63.30;30.77;;;;;;;4.92;73.56;100746.56;5092165;28;20404;-75
2022/03/16 07:36:24;;;;;;;59.70;29.97;;;;;;;4.81;73.28;100730.69;5093301;28;20333;-76
2022/03/16 07:38:50;;;;;;;64.90;31.50;;;;;;;4.64;72.74;100738.81;5093746;28;20269;-74
2022/03/16 07:41:15;;;;;;;70.37;31.80;;;;;;;4.35;74.15;100707.47;5094256;28;20107;-76
2022/03/16 07:43:41;;;;;;;67.03;33.20;;;;;;;4.52;74.53;100732.59;5094305;28;20037;-75
2022/03/16 07:46:07;;;;;;;68.63;33.33;;;;;;;4.46;74.75;100740.84;5094816;28;20055;-75
2022/03/16 07:48:34;;;;;;;73.25;31.42;;;;;;;4.48;74.81;100739.81;5094195;28;20322;-75
2022/03/16 07:51:00;;;;;;;63.07;32.37;;;;;;;4.48;75.06;100734.56;5093117;28;20034;-76
2022/03/16 07:53:26;;;;;;;66.93;32.33;;;;;;;4.54;74.30;100728.09;5094642;28;20032;-75
2022/03/16 07:55:55;;;;;;;67.67;33.13;;;;;;;4.63;72.68;100724.88;5092955;28;20073;-75
2022/03/16 07:58:21;;;;;;;66.68;32.78;;;;;;;4.89;72.23;100736.28;5095204;28;20090;-75
2022/03/16 08:00:46;;;;;;;71.50;33.93;;;;;;;5.03;71.53;100737.97;5098819;28;20044;-75
2022/03/16 08:03:13;;;;;;;75.18;34.72;;;;;;;4.92;72.07;100745.72;5098861;28;20028;-75
2022/03/16 08:05:39;;;;;;;64.17;31.23;;;;;;;5.13;71.25;100739.03;5099181;28;20278;-75
2022/03/16 08:08:05;;;;;;;55.63;26.20;;;;;;;5.05;70.55;100743.97;5098341;28;20097;-76
2022/03/16 08:10:31;;;;;;;54.80;25.05;;;;;;;5.05;68.94;100731.69;5099638;28;20039;-74
2022/03/16 08:12:56;;;;;;;52.88;24.40;;;;;;;5.03;68.82;100730.09;5098350;28;20068;-74
2022/03/16 08:15:22;;;;;;;52.13;24.17;;;;;;;5.05;69.38;100738.72;5099024;28;20028;-75
2022/03/16 08:17:47;;;;;;;50.42;24.02;;;;;;;4.98;70.08;100725.16;5100644;28;20265;-75
2022/03/16 08:20:12;;;;;;;51.93;25.03;;;;;;;5.07;70.12;100736.81;5099052;28;20084;-75
2022/03/16 08:22:38;;;;;;;41.67;21.27;;;;;;;5.06;70.34;100719.41;5099665;28;20337;-75
2022/03/16 08:25:07;;;;;;;54.70;25.10;;;;;;;5.03;69.85;100733.56;5100200;28;20035;-75
2022/03/16 08:27:33;;;;;;;47.85;22.77;;;;;;;5.10;69.88;100729.59;5096846;28;20034;-75
2022/03/16 08:29:59;;;;;;;52.13;24.42;;;;;;;5.06;69.42;100687.91;5100267;28;20074;-76
2022/03/16 08:32:25;;;;;;;44.35;22.33;;;;;;;5.02;69.97;100705.63;5101230;28;20024;-76
2022/03/16 08:34:51;;;;;;;46.28;23.13;;;;;;;4.98;71.15;100724.31;5099133;28;20031;-74
2022/03/16 08:37:18;;;;;;;41.13;21.65;;;;;;;5.13;70.16;100712.78;5099773;28;20043;-76
2022/03/16 08:39:44;;;;;;;37.55;20.02;;;;;;;5.29;69.24;100721.34;5098016;28;20067;-75
2022/03/16 08:42:11;;;;;;;42.13;20.60;;;;;;;5.14;70.04;100715.31;5098787;28;20039;-76
2022/03/16 08:44:37;;;;;;;36.65;19.23;;;;;;;5.13;70.36;100716.25;5097457;28;20016;-76
2022/03/16 08:47:03;;;;;;;42.42;20.60;;;;;;;5.13;69.17;100707.53;5099708;28;20081;-76
2022/03/16 08:49:29;;;;;;;39.90;21.30;;;;;;;5.55;69.36;100719.53;5099326;28;20322;-75
2022/03/16 08:51:56;;;;;;;41.97;22.30;;;;;;;5.69;69.02;100689.69;5099337;28;20028;-76
2022/03/16 08:54:22;;;;;;;41.15;20.77;;;;;;;5.89;68.12;100717.19;5099365;28;20206;-75
2022/03/16 08:56:48;;;;;;;44.22;21.80;;;;;;;5.93;66.86;100711.63;5099289;28;20087;-76
2022/03/16 08:59:14;;;;;;;38.67;19.40;;;;;;;5.65;67.59;100717.97;5099039;28;20230;-74
2022/03/16 09:01:39;;;;;;;39.00;19.80;;;;;;;5.66;66.10;100676.75;5098469;28;20039;-76
2022/03/16 09:04:05;;;;;;;40.45;19.92;;;;;;;5.57;67.51;100706.31;5102405;28;20032;-77
2022/03/16 09:06:30;;;;;;;36.25;21.02;;;;;;;5.74;66.82;100713.84;5102591;28;20031;-76
2022/03/16 09:08:56;;;;;;;38.25;20.08;;;;;;;5.82;67.60;100690.50;5103126;28;20032;-78
2022/03/16 09:11:21;;;;;;;39.97;21.23;;;;;;;6.09;67.36;100704.31;5103108;28;20036;-78
2022/03/16 09:13:47;;;;;;;40.25;22.33;;;;;;;6.21;66.06;100686.00;5101283;28;20028;-78
2022/03/16 09:16:16;;;;;;;43.15;21.15;;;;;;;6.53;64.64;100710.81;5103410;28;20027;-78
2022/03/16 09:18:41;;;;;;;34.05;19.63;;;;;;;6.43;64.63;100715.06;5103212;28;20031;-78
2022/03/16 09:21:07;;;;;;;35.60;19.70;;;;;;;6.46;65.37;100703.50;5101375;28;20060;-78
2022/03/16 09:23:33;;;;;;;37.22;21.40;;;;;;;6.58;62.99;100706.06;5103276;28;20095;-78
2022/03/16 09:25:59;;;;;;;40.22;20.90;;;;;;;6.61;63.53;100703.19;5102424;28;20374;-78
2022/03/16 09:28:25;;;;;;;35.00;20.25;;;;;;;6.83;62.93;100715.59;5100722;28;20024;-79
2022/03/16 09:30:51;;;;;;;37.60;21.98;;;;;;;6.91;61.92;100704.50;5103139;28;20074;-79
2022/03/16 09:33:17;;;;;;;40.67;21.08;;;;;;;7.13;62.37;100708.97;5100857;28;20083;-79
2022/03/16 09:35:44;;;;;;;41.85;22.45;;;;;;;7.28;62.22;100697.28;5101795;28;20352;-79
2022/03/16 09:38:09;;;;;;;45.35;22.73;;;;;;;7.24;61.58;100704.56;5102547;28;20028;-79
2022/03/16 09:40:36;;;;;;;35.35;19.75;;;;;;;7.28;61.54;100699.91;5101554;28;20077;-78
2022/03/16 09:43:07;;;;;;;40.28;20.05;;;;;;;7.44;61.85;100700.44;5102706;28;20069;-78
2022/03/16 09:45:58;;;;;;;35.33;17.55;;;;;;;7.43;60.95;100687.38;5102056;28;20036;-79
2022/03/16 09:48:24;;;;;;;42.80;18.30;;;;;;;7.40;61.20;100667.38;5061730;28;20085;-79
2022/03/16 09:50:53;;;;;;;46.45;18.23;;;;;;;7.34;60.70;100670.50;5101826;28;20032;-79
2022/03/16 09:53:20;;;;;;;34.47;18.23;;;;;;;7.17;60.61;100655.13;5100867;28;20030;-78
2022/03/16 09:55:46;;;;;;;36.40;19.15;;;;;;;7.20;61.29;100666.25;5102578;28;20093;-78
2022/03/16 09:58:11;;;;;;;30.45;18.00;;;;;;;7.09;62.30;100647.81;5101997;28;20354;-79
2022/03/16 10:00:38;;;;;;;38.05;18.35;;;;;;;7.31;61.16;100660.19;5099802;28;20043;-79
2022/03/16 10:03:04;;;;;;;32.65;17.98;;;;;;;7.40;61.81;100667.38;5102870;28;20035;-78
2022/03/16 10:05:30;;;;;;;34.92;18.02;;;;;;;7.77;59.67;100664.50;5101038;28;20088;-78
2022/03/16 10:07:59;;;;;;;31.20;17.48;;;;;;;7.92;58.57;100650.91;5100805;28;20032;-78
2022/03/16 10:13:18;;;;;;;39.72;18.75;;;;;;;8.65;57.73;100659.97;5100145;28;20031;-79
2022/03/16 10:15:44;;;;;;;31.88;18.58;;;;;;;8.91;56.57;100645.41;5100647;28;20087;-77
2022/03/16 10:18:09;;;;;;;30.15;17.90;;;;;;;9.12;55.35;100639.28;5101609;28;20047;-76
2022/03/16 10:20:39;;;;;;;42.10;19.42;;;;;;;8.86;55.84;100642.31;5101653;28;20111;-77
2022/03/16 10:23:10;;;;;;;31.17;18.75;;;;;;;8.93;55.88;100643.47;5102308;28;20036;-76
2022/03/16 10:25:55;;;;;;;35.38;18.27;;;;;;;9.09;55.58;100627.16;5101099;28;20024;-76
2022/03/16 10:28:28;;;;;;;31.70;18.75;;;;;;;9.23;54.75;100636.56;5101417;28;20358;-76
2022/03/16 10:31:18;;;;;;;35.88;19.02;;;;;;;9.39;53.99;100634.28;5100278;28;20044;-76
2022/03/16 10:33:44;;;;;;;33.65;20.15;;;;;;;9.56;53.38;100633.66;5100183;28;20027;-76
2022/03/16 10:36:12;;;;;;;34.75;17.65;;;;;;;9.58;53.56;100631.72;5100267;28;20032;-77
2022/03/16 10:38:46;;;;;;;36.90;19.52;;;;;;;9.64;53.70;100630.34;5100953;28;20249;-76
2022/03/16 10:46:53;;;;;;;33.17;18.85;;;;;;;9.12;55.07;100637.47;5099150;28;20030;-79
2022/03/16 10:49:21;;;;;;;31.55;18.58;;;;;;;9.25;54.55;100630.19;5102155;28;20024;-79
2022/03/16 10:52:12;;;;;;;34.42;18.40;;;;;;;9.23;54.13;100620.69;5099248;28;20114;-79
2022/03/16 10:54:38;;;;;;;45.38;19.50;;;;;;;9.14;54.47;100611.75;5099599;28;20020;-76
2022/03/16 10:57:08;;;;;;;33.38;17.92;;;;;;;9.28;53.56;100605.28;5100807;28;20124;-76
2022/03/16 10:59:34;;;;;;;39.28;19.17;;;;;;;9.21;54.50;100599.69;5098305;28;20215;-76
2022/03/16 11:02:03;;;;;;;32.65;17.70;;;;;;;9.21;55.10;100602.34;5093984;28;20035;-77
2022/03/16 11:04:30;;;;;;;37.55;21.17;;;;;;;9.12;54.03;100544.16;5095105;28;20085;-77
2022/03/16 11:06:57;;;;;;;44.83;20.67;;;;;;;9.49;53.59;100576.19;5095185;28;20052;-77
2022/03/16 11:09:24;;;;;;;44.90;22.20;;;;;;;9.57;53.15;100593.03;5094903;28;20062;-76
2022/03/16 11:14:36;;;;;;;43.78;22.33;;;;;;;9.44;53.24;100589.78;5095942;28;20137;-79
2022/03/16 11:17:03;;;;;;;45.72;22.45;;;;;;;9.13;53.88;100591.59;5094219;28;20309;-78
2022/03/16 11:19:29;;;;;;;51.78;25.02;;;;;;;8.85;54.89;100590.47;5095956;28;20036;-76
2022/03/16 11:22:04;;;;;;;45.15;23.38;;;;;;;9.04;54.02;100592.38;5093991;28;20027;-76
2022/03/16 11:24:35;;;;;;;59.42;25.23;;;;;;;9.25;53.88;100592.34;5093059;28;20024;-77